sensor_id;sensor_type;location;lat;lon;timestamp;P1;durP1;ratioP1;P2;durP2;ratioP2
30998;SDS011;20549;50.042;8.968;2022-07-18T00:01:41;2.05;;;1.20;;
30998;SDS011;20549;50.042;8.968;2022-07-18T00:04:07;2.85;;;1.40;;
30998;SDS011;20549;50.042;8.968;2022-07-18T00:06:34;1.92;;;1.00;;
30998;SDS011;20549;50.042;8.968;2022-07-18T00:09:01;2.65;;;1.47;;
30998;SDS011;20549;50.042;8.968;2022-07-18T00:11:27;2.70;;;1.10;;
30998;SDS011;20549;50.042;8.968;2022-07-18T00:13:54;1.00;;;1.00;;
30998;SDS011;20549;50.042;8.968;2022-07-18T00:16:20;1.22;;;1.12;;
30998;SDS011;20549;50.042;8.968;2022-07-18T00:18:47;1.37;;;1.10;;
30998;SDS011;20549;50.042;8.968;2022-07-18T00:21:14;1.67;;;1.47;;
30998;SDS011;20549;50.042;8.968;2022-07-18T00:23:40;3.00;;;1.27;;
30998;SDS011;20549;50.042;8.968;2022-07-18T00:26:07;1.27;;;1.17;;
30998;SDS011;20549;50.042;8.968;2022-07-18T00:28:33;1.67;;;1.50;;
30998;SDS011;20549;50.042;8.968;2022-07-18T00:31:00;1.40;;;1.30;;
30998;SDS011;20549;50.042;8.968;2022-07-18T00:33:26;1.87;;;1.30;;
30998;SDS011;20549;50.042;8.968;2022-07-18T00:35:53;0.97;;;0.97;;
30998;SDS011;20549;50.042;8.968;2022-07-18T00:38:20;1.23;;;1.13;;
30998;SDS011;20549;50.042;8.968;2022-07-18T00:40:46;2.43;;;1.30;;
30998;SDS011;20549;50.042;8.968;2022-07-18T00:43:13;1.12;;;1.10;;
30998;SDS011;20549;50.042;8.968;2022-07-18T00:45:43;1.00;;;0.70;;
30998;SDS011;20549;50.042;8.968;2022-07-18T00:48:06;1.23;;;1.03;;
30998;SDS011;20549;50.042;8.968;2022-07-18T00:50:33;1.13;;;0.90;;
30998;SDS011;20549;50.042;8.968;2022-07-18T00:52:59;1.00;;;0.90;;
30998;SDS011;20549;50.042;8.968;2022-07-18T00:55:26;1.53;;;1.33;;
30998;SDS011;20549;50.042;8.968;2022-07-18T00:57:52;2.13;;;1.03;;
30998;SDS011;20549;50.042;8.968;2022-07-18T01:00:19;2.87;;;1.07;;
30998;SDS011;20549;50.042;8.968;2022-07-18T01:03:03;1.00;;;1.00;;
30998;SDS011;20549;50.042;8.968;2022-07-18T01:05:30;1.20;;;1.13;;
30998;SDS011;20549;50.042;8.968;2022-07-18T01:07:57;1.53;;;1.20;;
30998;SDS011;20549;50.042;8.968;2022-07-18T01:10:23;0.90;;;0.90;;
30998;SDS011;20549;50.042;8.968;2022-07-18T01:12:50;2.57;;;1.20;;
30998;SDS011;20549;50.042;8.968;2022-07-18T01:15:16;1.25;;;1.05;;
30998;SDS011;20549;50.042;8.968;2022-07-18T01:17:43;1.57;;;1.10;;
30998;SDS011;20549;50.042;8.968;2022-07-18T01:20:09;2.97;;;1.20;;
30998;SDS011;20549;50.042;8.968;2022-07-18T01:22:36;1.13;;;0.93;;
30998;SDS011;20549;50.042;8.968;2022-07-18T01:25:03;1.50;;;1.27;;
30998;SDS011;20549;50.042;8.968;2022-07-18T01:27:29;1.73;;;1.00;;
30998;SDS011;20549;50.042;8.968;2022-07-18T01:29:56;1.03;;;1.03;;
30998;SDS011;20549;50.042;8.968;2022-07-18T01:32:22;5.07;;;1.83;;
30998;SDS011;20549;50.042;8.968;2022-07-18T01:34:49;1.50;;;1.40;;
30998;SDS011;20549;50.042;8.968;2022-07-18T01:37:16;1.20;;;1.20;;
30998;SDS011;20549;50.042;8.968;2022-07-18T01:39:43;1.23;;;1.13;;
30998;SDS011;20549;50.042;8.968;2022-07-18T01:42:09;1.60;;;1.50;;
30998;SDS011;20549;50.042;8.968;2022-07-18T01:44:35;1.47;;;1.20;;
30998;SDS011;20549;50.042;8.968;2022-07-18T01:47:03;1.40;;;1.10;;
30998;SDS011;20549;50.042;8.968;2022-07-18T01:49:29;1.10;;;1.00;;
30998;SDS011;20549;50.042;8.968;2022-07-18T01:51:58;2.17;;;1.10;;
30998;SDS011;20549;50.042;8.968;2022-07-18T01:54:26;1.30;;;1.20;;
30998;SDS011;20549;50.042;8.968;2022-07-18T01:56:51;1.40;;;1.30;;
30998;SDS011;20549;50.042;8.968;2022-07-18T01:59:17;1.67;;;1.10;;
30998;SDS011;20549;50.042;8.968;2022-07-18T02:01:44;2.37;;;1.40;;
30998;SDS011;20549;50.042;8.968;2022-07-18T02:04:11;3.97;;;1.50;;
30998;SDS011;20549;50.042;8.968;2022-07-18T02:06:37;2.20;;;1.30;;
30998;SDS011;20549;50.042;8.968;2022-07-18T02:09:04;1.83;;;1.73;;
30998;SDS011;20549;50.042;8.968;2022-07-18T02:11:30;1.57;;;1.47;;
30998;SDS011;20549;50.042;8.968;2022-07-18T02:13:57;3.30;;;1.43;;
30998;SDS011;20549;50.042;8.968;2022-07-18T02:16:23;1.67;;;1.37;;
30998;SDS011;20549;50.042;8.968;2022-07-18T02:18:50;2.20;;;1.20;;
30998;SDS011;20549;50.042;8.968;2022-07-18T02:21:17;1.57;;;1.40;;
30998;SDS011;20549;50.042;8.968;2022-07-18T02:23:43;1.77;;;1.20;;
30998;SDS011;20549;50.042;8.968;2022-07-18T02:26:10;2.03;;;1.43;;
30998;SDS011;20549;50.042;8.968;2022-07-18T02:28:37;1.73;;;1.43;;
30998;SDS011;20549;50.042;8.968;2022-07-18T02:31:03;2.00;;;1.80;;
30998;SDS011;20549;50.042;8.968;2022-07-18T02:33:30;1.47;;;1.37;;
30998;SDS011;20549;50.042;8.968;2022-07-18T02:35:56;1.70;;;1.47;;
30998;SDS011;20549;50.042;8.968;2022-07-18T02:38:23;2.37;;;1.40;;
30998;SDS011;20549;50.042;8.968;2022-07-18T02:40:49;1.40;;;1.30;;
30998;SDS011;20549;50.042;8.968;2022-07-18T02:43:16;1.50;;;1.40;;
30998;SDS011;20549;50.042;8.968;2022-07-18T02:45:42;2.77;;;1.47;;
30998;SDS011;20549;50.042;8.968;2022-07-18T02:48:09;1.50;;;1.40;;
30998;SDS011;20549;50.042;8.968;2022-07-18T02:50:36;1.37;;;1.27;;
30998;SDS011;20549;50.042;8.968;2022-07-18T02:53:02;1.00;;;1.00;;
30998;SDS011;20549;50.042;8.968;2022-07-18T02:55:29;1.67;;;1.53;;
30998;SDS011;20549;50.042;8.968;2022-07-18T02:57:55;2.17;;;1.93;;
30998;SDS011;20549;50.042;8.968;2022-07-18T03:00:22;1.57;;;1.47;;
30998;SDS011;20549;50.042;8.968;2022-07-18T03:02:49;1.20;;;1.10;;
30998;SDS011;20549;50.042;8.968;2022-07-18T03:05:15;1.50;;;1.40;;
30998;SDS011;20549;50.042;8.968;2022-07-18T03:07:42;2.07;;;1.57;;
30998;SDS011;20549;50.042;8.968;2022-07-18T03:10:09;1.83;;;1.50;;
30998;SDS011;20549;50.042;8.968;2022-07-18T03:12:35;1.60;;;1.50;;
30998;SDS011;20549;50.042;8.968;2022-07-18T03:15:02;2.07;;;1.50;;
30998;SDS011;20549;50.042;8.968;2022-07-18T03:17:28;2.20;;;1.13;;
30998;SDS011;20549;50.042;8.968;2022-07-18T03:19:55;3.93;;;1.43;;
30998;SDS011;20549;50.042;8.968;2022-07-18T03:22:21;2.80;;;1.47;;
30998;SDS011;20549;50.042;8.968;2022-07-18T03:24:48;3.47;;;1.40;;
30998;SDS011;20549;50.042;8.968;2022-07-18T03:27:14;1.70;;;1.30;;
30998;SDS011;20549;50.042;8.968;2022-07-18T03:29:41;1.70;;;1.27;;
30998;SDS011;20549;50.042;8.968;2022-07-18T03:32:08;4.70;;;2.13;;
30998;SDS011;20549;50.042;8.968;2022-07-18T03:34:34;2.00;;;1.37;;
30998;SDS011;20549;50.042;8.968;2022-07-18T03:37:01;1.50;;;1.40;;
30998;SDS011;20549;50.042;8.968;2022-07-18T03:39:27;2.90;;;1.73;;
30998;SDS011;20549;50.042;8.968;2022-07-18T03:41:54;1.83;;;1.43;;
30998;SDS011;20549;50.042;8.968;2022-07-18T03:44:21;1.60;;;1.50;;
30998;SDS011;20549;50.042;8.968;2022-07-18T03:46:47;1.67;;;1.27;;
30998;SDS011;20549;50.042;8.968;2022-07-18T03:49:14;5.07;;;1.37;;
30998;SDS011;20549;50.042;8.968;2022-07-18T03:51:40;1.67;;;1.40;;
30998;SDS011;20549;50.042;8.968;2022-07-18T03:54:07;2.07;;;1.60;;
30998;SDS011;20549;50.042;8.968;2022-07-18T03:56:34;1.60;;;1.50;;
30998;SDS011;20549;50.042;8.968;2022-07-18T03:59:00;1.53;;;1.43;;
30998;SDS011;20549;50.042;8.968;2022-07-18T04:01:27;5.07;;;2.10;;
30998;SDS011;20549;50.042;8.968;2022-07-18T04:03:53;1.50;;;1.40;;
30998;SDS011;20549;50.042;8.968;2022-07-18T04:06:20;1.77;;;1.63;;
30998;SDS011;20549;50.042;8.968;2022-07-18T04:08:46;3.13;;;1.90;;
30998;SDS011;20549;50.042;8.968;2022-07-18T04:11:13;2.97;;;1.80;;
30998;SDS011;20549;50.042;8.968;2022-07-18T04:13:40;2.83;;;1.63;;
30998;SDS011;20549;50.042;8.968;2022-07-18T04:16:06;2.80;;;1.80;;
30998;SDS011;20549;50.042;8.968;2022-07-18T04:18:33;2.80;;;1.60;;
30998;SDS011;20549;50.042;8.968;2022-07-18T04:20:59;2.03;;;1.80;;
30998;SDS011;20549;50.042;8.968;2022-07-18T04:23:26;1.80;;;1.70;;
30998;SDS011;20549;50.042;8.968;2022-07-18T04:25:53;6.63;;;2.03;;
30998;SDS011;20549;50.042;8.968;2022-07-18T04:28:19;4.33;;;1.73;;
30998;SDS011;20549;50.042;8.968;2022-07-18T04:30:46;2.90;;;1.90;;
30998;SDS011;20549;50.042;8.968;2022-07-18T04:33:12;3.10;;;1.60;;
30998;SDS011;20549;50.042;8.968;2022-07-18T04:35:39;1.70;;;1.60;;
30998;SDS011;20549;50.042;8.968;2022-07-18T04:38:06;2.30;;;1.57;;
30998;SDS011;20549;50.042;8.968;2022-07-18T04:40:32;2.03;;;1.70;;
30998;SDS011;20549;50.042;8.968;2022-07-18T04:42:59;1.67;;;1.33;;
30998;SDS011;20549;50.042;8.968;2022-07-18T04:45:25;1.57;;;1.47;;
30998;SDS011;20549;50.042;8.968;2022-07-18T04:47:52;1.43;;;1.30;;
30998;SDS011;20549;50.042;8.968;2022-07-18T04:50:18;2.00;;;1.47;;
30998;SDS011;20549;50.042;8.968;2022-07-18T04:52:46;2.33;;;1.77;;
30998;SDS011;20549;50.042;8.968;2022-07-18T04:55:12;2.93;;;1.50;;
30998;SDS011;20549;50.042;8.968;2022-07-18T04:57:39;2.63;;;1.60;;
30998;SDS011;20549;50.042;8.968;2022-07-18T05:00:06;1.90;;;1.70;;
30998;SDS011;20549;50.042;8.968;2022-07-18T05:02:34;2.00;;;1.75;;
30998;SDS011;20549;50.042;8.968;2022-07-18T05:05:01;2.22;;;2.02;;
30998;SDS011;20549;50.042;8.968;2022-07-18T05:07:28;2.85;;;1.77;;
30998;SDS011;20549;50.042;8.968;2022-07-18T05:09:54;2.20;;;1.87;;
30998;SDS011;20549;50.042;8.968;2022-07-18T05:12:21;1.47;;;1.37;;
30998;SDS011;20549;50.042;8.968;2022-07-18T05:14:47;1.77;;;1.60;;
30998;SDS011;20549;50.042;8.968;2022-07-18T05:17:17;3.15;;;1.92;;
30998;SDS011;20549;50.042;8.968;2022-07-18T05:19:43;2.50;;;1.60;;
30998;SDS011;20549;50.042;8.968;2022-07-18T05:22:10;2.58;;;1.60;;
30998;SDS011;20549;50.042;8.968;2022-07-18T05:24:36;2.12;;;1.52;;
30998;SDS011;20549;50.042;8.968;2022-07-18T05:27:03;2.42;;;1.80;;
30998;SDS011;20549;50.042;8.968;2022-07-18T05:29:30;1.95;;;1.65;;
30998;SDS011;20549;50.042;8.968;2022-07-18T05:31:56;1.67;;;1.57;;
30998;SDS011;20549;50.042;8.968;2022-07-18T05:34:23;1.72;;;1.62;;
30998;SDS011;20549;50.042;8.968;2022-07-18T05:36:49;3.37;;;1.87;;
30998;SDS011;20549;50.042;8.968;2022-07-18T05:39:16;3.58;;;1.60;;
30998;SDS011;20549;50.042;8.968;2022-07-18T05:41:43;2.20;;;1.60;;
30998;SDS011;20549;50.042;8.968;2022-07-18T05:44:09;2.20;;;1.70;;
30998;SDS011;20549;50.042;8.968;2022-07-18T05:46:36;2.10;;;1.67;;
30998;SDS011;20549;50.042;8.968;2022-07-18T05:49:02;1.67;;;1.50;;
30998;SDS011;20549;50.042;8.968;2022-07-18T05:51:29;1.90;;;1.37;;
30998;SDS011;20549;50.042;8.968;2022-07-18T05:53:56;1.55;;;1.32;;
30998;SDS011;20549;50.042;8.968;2022-07-18T05:56:22;2.55;;;1.40;;
30998;SDS011;20549;50.042;8.968;2022-07-18T05:58:49;2.33;;;1.50;;
30998;SDS011;20549;50.042;8.968;2022-07-18T06:01:15;4.70;;;1.40;;
30998;SDS011;20549;50.042;8.968;2022-07-18T06:03:42;2.42;;;1.70;;
30998;SDS011;20549;50.042;8.968;2022-07-18T06:06:08;4.20;;;1.42;;
30998;SDS011;20549;50.042;8.968;2022-07-18T06:08:35;1.57;;;1.47;;
30998;SDS011;20549;50.042;8.968;2022-07-18T06:11:02;4.75;;;1.77;;
30998;SDS011;20549;50.042;8.968;2022-07-18T06:13:28;1.62;;;1.52;;
30998;SDS011;20549;50.042;8.968;2022-07-18T06:15:55;1.40;;;1.30;;
30998;SDS011;20549;50.042;8.968;2022-07-18T06:18:21;2.50;;;1.42;;
30998;SDS011;20549;50.042;8.968;2022-07-18T06:20:48;2.58;;;1.37;;
30998;SDS011;20549;50.042;8.968;2022-07-18T06:23:15;2.22;;;1.50;;
30998;SDS011;20549;50.042;8.968;2022-07-18T06:25:41;1.50;;;1.40;;
30998;SDS011;20549;50.042;8.968;2022-07-18T06:28:08;1.30;;;1.20;;
30998;SDS011;20549;50.042;8.968;2022-07-18T06:30:34;1.95;;;1.40;;
30998;SDS011;20549;50.042;8.968;2022-07-18T06:33:01;3.72;;;1.50;;
30998;SDS011;20549;50.042;8.968;2022-07-18T06:35:28;1.52;;;1.40;;
30998;SDS011;20549;50.042;8.968;2022-07-18T06:37:54;1.80;;;1.17;;
30998;SDS011;20549;50.042;8.968;2022-07-18T06:40:21;2.70;;;1.20;;
30998;SDS011;20549;50.042;8.968;2022-07-18T06:42:47;3.55;;;1.50;;
30998;SDS011;20549;50.042;8.968;2022-07-18T06:45:14;3.12;;;1.17;;
30998;SDS011;20549;50.042;8.968;2022-07-18T06:47:41;5.75;;;1.37;;
30998;SDS011;20549;50.042;8.968;2022-07-18T06:50:07;1.35;;;1.25;;
30998;SDS011;20549;50.042;8.968;2022-07-18T06:52:34;2.15;;;1.10;;
30998;SDS011;20549;50.042;8.968;2022-07-18T06:55:00;4.92;;;1.30;;
30998;SDS011;20549;50.042;8.968;2022-07-18T06:57:27;2.60;;;1.22;;
30998;SDS011;20549;50.042;8.968;2022-07-18T06:59:53;2.92;;;1.32;;
30998;SDS011;20549;50.042;8.968;2022-07-18T07:02:20;4.60;;;1.27;;
30998;SDS011;20549;50.042;8.968;2022-07-18T07:04:47;1.60;;;1.50;;
30998;SDS011;20549;50.042;8.968;2022-07-18T07:07:13;2.98;;;1.82;;
30998;SDS011;20549;50.042;8.968;2022-07-18T07:09:40;1.70;;;1.22;;
30998;SDS011;20549;50.042;8.968;2022-07-18T07:12:06;2.85;;;1.47;;
30998;SDS011;20549;50.042;8.968;2022-07-18T07:14:33;2.15;;;1.30;;
30998;SDS011;20549;50.042;8.968;2022-07-18T07:17:00;1.62;;;1.30;;
30998;SDS011;20549;50.042;8.968;2022-07-18T07:19:26;4.03;;;1.15;;
30998;SDS011;20549;50.042;8.968;2022-07-18T07:21:53;8.85;;;1.42;;
30998;SDS011;20549;50.042;8.968;2022-07-18T07:24:19;3.83;;;1.25;;
30998;SDS011;20549;50.042;8.968;2022-07-18T07:26:46;4.78;;;1.50;;
30998;SDS011;20549;50.042;8.968;2022-07-18T07:29:13;1.30;;;0.93;;
30998;SDS011;20549;50.042;8.968;2022-07-18T07:31:40;2.20;;;1.30;;
30998;SDS011;20549;50.042;8.968;2022-07-18T07:34:06;1.80;;;1.00;;
30998;SDS011;20549;50.042;8.968;2022-07-18T07:36:33;5.83;;;1.70;;
30998;SDS011;20549;50.042;8.968;2022-07-18T07:38:59;6.70;;;1.30;;
30998;SDS011;20549;50.042;8.968;2022-07-18T07:41:26;3.02;;;1.50;;
30998;SDS011;20549;50.042;8.968;2022-07-18T07:43:52;7.92;;;2.12;;
30998;SDS011;20549;50.042;8.968;2022-07-18T07:46:19;5.25;;;1.50;;
30998;SDS011;20549;50.042;8.968;2022-07-18T07:48:46;2.08;;;1.32;;
30998;SDS011;20549;50.042;8.968;2022-07-18T07:51:12;1.80;;;1.10;;
30998;SDS011;20549;50.042;8.968;2022-07-18T07:53:39;3.42;;;1.35;;
30998;SDS011;20549;50.042;8.968;2022-07-18T07:56:05;1.25;;;1.15;;
30998;SDS011;20549;50.042;8.968;2022-07-18T07:58:32;3.02;;;1.00;;
30998;SDS011;20549;50.042;8.968;2022-07-18T08:00:58;1.17;;;1.07;;
30998;SDS011;20549;50.042;8.968;2022-07-18T08:03:25;1.65;;;1.05;;
30998;SDS011;20549;50.042;8.968;2022-07-18T08:05:52;7.28;;;1.77;;
30998;SDS011;20549;50.042;8.968;2022-07-18T08:08:18;2.42;;;1.57;;
30998;SDS011;20549;50.042;8.968;2022-07-18T08:10:45;1.95;;;1.10;;
30998;SDS011;20549;50.042;8.968;2022-07-18T08:13:12;2.80;;;1.22;;
30998;SDS011;20549;50.042;8.968;2022-07-18T08:15:38;2.40;;;0.85;;
30998;SDS011;20549;50.042;8.968;2022-07-18T08:18:05;1.52;;;0.98;;
30998;SDS011;20549;50.042;8.968;2022-07-18T08:20:31;1.32;;;0.80;;
30998;SDS011;20549;50.042;8.968;2022-07-18T08:23:05;2.52;;;1.10;;
30998;SDS011;20549;50.042;8.968;2022-07-18T08:25:31;1.10;;;1.00;;
30998;SDS011;20549;50.042;8.968;2022-07-18T08:27:58;0.80;;;0.70;;
30998;SDS011;20549;50.042;8.968;2022-07-18T08:30:24;2.35;;;1.00;;
30998;SDS011;20549;50.042;8.968;2022-07-18T08:32:50;1.25;;;0.95;;
30998;SDS011;20549;50.042;8.968;2022-07-18T08:35:17;1.22;;;0.93;;
30998;SDS011;20549;50.042;8.968;2022-07-18T08:37:43;1.50;;;1.07;;
30998;SDS011;20549;50.042;8.968;2022-07-18T08:40:10;1.72;;;1.10;;
30998;SDS011;20549;50.042;8.968;2022-07-18T08:42:37;1.37;;;0.85;;
30998;SDS011;20549;50.042;8.968;2022-07-18T08:45:03;1.12;;;1.02;;
30998;SDS011;20549;50.042;8.968;2022-07-18T08:47:30;1.32;;;0.88;;
30998;SDS011;20549;50.042;8.968;2022-07-18T08:49:57;1.12;;;1.00;;
30998;SDS011;20549;50.042;8.968;2022-07-18T08:52:23;1.25;;;0.80;;
30998;SDS011;20549;50.042;8.968;2022-07-18T08:54:50;6.25;;;1.17;;
30998;SDS011;20549;50.042;8.968;2022-07-18T08:57:16;0.85;;;0.62;;
30998;SDS011;20549;50.042;8.968;2022-07-18T08:59:43;2.25;;;0.85;;
30998;SDS011;20549;50.042;8.968;2022-07-18T09:02:09;1.30;;;0.80;;
30998;SDS011;20549;50.042;8.968;2022-07-18T09:04:37;2.25;;;0.85;;
30998;SDS011;20549;50.042;8.968;2022-07-18T09:07:03;1.27;;;0.80;;
30998;SDS011;20549;50.042;8.968;2022-07-18T09:09:29;3.70;;;1.07;;
30998;SDS011;20549;50.042;8.968;2022-07-18T09:11:56;0.65;;;0.65;;
30998;SDS011;20549;50.042;8.968;2022-07-18T09:14:29;2.10;;;0.95;;
30998;SDS011;20549;50.042;8.968;2022-07-18T09:17:14;1.02;;;0.90;;
30998;SDS011;20549;50.042;8.968;2022-07-18T09:19:40;2.45;;;0.98;;
30998;SDS011;20549;50.042;8.968;2022-07-18T09:24:58;1.00;;;0.80;;
30998;SDS011;20549;50.042;8.968;2022-07-18T09:27:27;1.95;;;0.85;;
30998;SDS011;20549;50.042;8.968;2022-07-18T09:32:49;1.35;;;0.65;;
30998;SDS011;20549;50.042;8.968;2022-07-18T09:35:14;0.70;;;0.70;;
30998;SDS011;20549;50.042;8.968;2022-07-18T09:37:40;2.62;;;1.05;;
30998;SDS011;20549;50.042;8.968;2022-07-18T09:40:14;0.95;;;0.80;;
30998;SDS011;20549;50.042;8.968;2022-07-18T09:42:43;3.92;;;1.20;;
30998;SDS011;20549;50.042;8.968;2022-07-18T09:45:09;0.85;;;0.82;;
30998;SDS011;20549;50.042;8.968;2022-07-18T09:48:10;0.62;;;0.62;;
30998;SDS011;20549;50.042;8.968;2022-07-18T09:50:20;0.98;;;0.53;;
30998;SDS011;20549;50.042;8.968;2022-07-18T09:52:54;1.20;;;0.70;;
30998;SDS011;20549;50.042;8.968;2022-07-18T09:55:13;1.07;;;0.90;;
30998;SDS011;20549;50.042;8.968;2022-07-18T09:57:39;2.10;;;0.57;;
30998;SDS011;20549;50.042;8.968;2022-07-18T10:00:06;0.78;;;0.60;;
30998;SDS011;20549;50.042;8.968;2022-07-18T10:02:32;4.65;;;1.07;;
30998;SDS011;20549;50.042;8.968;2022-07-18T10:04:59;1.22;;;0.80;;
30998;SDS011;20549;50.042;8.968;2022-07-18T10:07:25;3.00;;;0.82;;
30998;SDS011;20549;50.042;8.968;2022-07-18T10:09:52;1.02;;;0.70;;
30998;SDS011;20549;50.042;8.968;2022-07-18T10:12:19;2.15;;;0.80;;
30998;SDS011;20549;50.042;8.968;2022-07-18T10:14:45;0.88;;;0.88;;
30998;SDS011;20549;50.042;8.968;2022-07-18T10:19:53;0.82;;;0.80;;
30998;SDS011;20549;50.042;8.968;2022-07-18T10:22:19;1.50;;;1.02;;
30998;SDS011;20549;50.042;8.968;2022-07-18T10:24:46;1.52;;;0.95;;
30998;SDS011;20549;50.042;8.968;2022-07-18T10:27:14;2.10;;;0.98;;
30998;SDS011;20549;50.042;8.968;2022-07-18T10:29:39;1.42;;;1.00;;
30998;SDS011;20549;50.042;8.968;2022-07-18T10:32:06;3.75;;;1.10;;
30998;SDS011;20549;50.042;8.968;2022-07-18T10:34:34;0.72;;;0.70;;
30998;SDS011;20549;50.042;8.968;2022-07-18T10:39:35;1.37;;;0.90;;
30998;SDS011;20549;50.042;8.968;2022-07-18T10:58:14;0.78;;;0.78;;
30998;SDS011;20549;50.042;8.968;2022-07-18T11:00:16;4.53;;;0.85;;
30998;SDS011;20549;50.042;8.968;2022-07-18T11:02:46;1.05;;;0.90;;
30998;SDS011;20549;50.042;8.968;2022-07-18T11:16:07;0.47;;;0.47;;
30998;SDS011;20549;50.042;8.968;2022-07-18T11:21:20;3.12;;;0.82;;
30998;SDS011;20549;50.042;8.968;2022-07-18T11:23:46;1.20;;;1.10;;
30998;SDS011;20549;50.042;8.968;2022-07-18T11:26:16;1.12;;;0.65;;
30998;SDS011;20549;50.042;8.968;2022-07-18T11:28:42;1.98;;;1.20;;
30998;SDS011;20549;50.042;8.968;2022-07-18T11:31:10;0.80;;;0.80;;
30998;SDS011;20549;50.042;8.968;2022-07-18T11:33:36;1.42;;;0.70;;
30998;SDS011;20549;50.042;8.968;2022-07-18T11:36:06;0.90;;;0.90;;
30998;SDS011;20549;50.042;8.968;2022-07-18T11:38:28;1.92;;;1.00;;
30998;SDS011;20549;50.042;8.968;2022-07-18T11:40:55;0.75;;;0.75;;
30998;SDS011;20549;50.042;8.968;2022-07-18T11:43:22;1.37;;;0.90;;
30998;SDS011;20549;50.042;8.968;2022-07-18T11:45:48;0.93;;;0.70;;
30998;SDS011;20549;50.042;8.968;2022-07-18T11:48:21;1.05;;;0.98;;
30998;SDS011;20549;50.042;8.968;2022-07-18T11:50:47;2.08;;;1.00;;
30998;SDS011;20549;50.042;8.968;2022-07-18T11:53:13;1.30;;;1.10;;
30998;SDS011;20549;50.042;8.968;2022-07-18T11:55:40;1.47;;;0.68;;
30998;SDS011;20549;50.042;8.968;2022-07-18T11:58:10;1.00;;;1.00;;
30998;SDS011;20549;50.042;8.968;2022-07-18T12:00:36;1.02;;;0.82;;
30998;SDS011;20549;50.042;8.968;2022-07-18T12:03:06;0.90;;;0.90;;
30998;SDS011;20549;50.042;8.968;2022-07-18T12:05:42;0.82;;;0.82;;
30998;SDS011;20549;50.042;8.968;2022-07-18T12:11:15;2.50;;;0.75;;
30998;SDS011;20549;50.042;8.968;2022-07-18T12:13:53;2.40;;;0.90;;
30998;SDS011;20549;50.042;8.968;2022-07-18T12:16:34;1.05;;;0.75;;
30998;SDS011;20549;50.042;8.968;2022-07-18T12:19:10;1.60;;;0.75;;
30998;SDS011;20549;50.042;8.968;2022-07-18T12:27:08;1.05;;;0.95;;
30998;SDS011;20549;50.042;8.968;2022-07-18T12:32:25;1.67;;;0.78;;
30998;SDS011;20549;50.042;8.968;2022-07-18T12:34:55;0.98;;;0.90;;
30998;SDS011;20549;50.042;8.968;2022-07-18T12:37:27;1.07;;;0.70;;
30998;SDS011;20549;50.042;8.968;2022-07-18T12:39:57;1.07;;;0.98;;
30998;SDS011;20549;50.042;8.968;2022-07-18T12:42:30;2.08;;;1.32;;
30998;SDS011;20549;50.042;8.968;2022-07-18T12:44:53;4.20;;;0.78;;
30998;SDS011;20549;50.042;8.968;2022-07-18T12:47:19;3.58;;;0.93;;
30998;SDS011;20549;50.042;8.968;2022-07-18T12:49:46;0.88;;;0.88;;
30998;SDS011;20549;50.042;8.968;2022-07-18T12:52:12;0.93;;;0.72;;
30998;SDS011;20549;50.042;8.968;2022-07-18T12:54:39;1.50;;;1.07;;
30998;SDS011;20549;50.042;8.968;2022-07-18T12:57:05;3.30;;;1.20;;
30998;SDS011;20549;50.042;8.968;2022-07-18T12:59:32;1.42;;;0.75;;
30998;SDS011;20549;50.042;8.968;2022-07-18T13:01:59;1.87;;;1.10;;
30998;SDS011;20549;50.042;8.968;2022-07-18T13:04:25;0.75;;;0.75;;
30998;SDS011;20549;50.042;8.968;2022-07-18T13:06:52;1.85;;;1.00;;
30998;SDS011;20549;50.042;8.968;2022-07-18T13:09:18;1.20;;;1.10;;
30998;SDS011;20549;50.042;8.968;2022-07-18T13:11:45;1.10;;;0.90;;
30998;SDS011;20549;50.042;8.968;2022-07-18T13:14:12;1.42;;;1.10;;
30998;SDS011;20549;50.042;8.968;2022-07-18T13:16:39;1.35;;;0.90;;
30998;SDS011;20549;50.042;8.968;2022-07-18T13:19:05;0.78;;;0.78;;
30998;SDS011;20549;50.042;8.968;2022-07-18T13:21:31;0.95;;;0.90;;
30998;SDS011;20549;50.042;8.968;2022-07-18T13:23:58;1.25;;;1.00;;
30998;SDS011;20549;50.042;8.968;2022-07-18T13:26:25;1.57;;;1.02;;
30998;SDS011;20549;50.042;8.968;2022-07-18T13:28:51;1.12;;;1.00;;
30998;SDS011;20549;50.042;8.968;2022-07-18T13:31:18;0.98;;;0.98;;
30998;SDS011;20549;50.042;8.968;2022-07-18T13:33:44;1.02;;;0.95;;
30998;SDS011;20549;50.042;8.968;2022-07-18T13:36:11;2.10;;;1.00;;
30998;SDS011;20549;50.042;8.968;2022-07-18T13:38:37;0.98;;;0.98;;
30998;SDS011;20549;50.042;8.968;2022-07-18T13:41:04;1.90;;;1.07;;
30998;SDS011;20549;50.042;8.968;2022-07-18T13:43:31;0.75;;;0.75;;
30998;SDS011;20549;50.042;8.968;2022-07-18T13:45:57;1.27;;;1.07;;
30998;SDS011;20549;50.042;8.968;2022-07-18T13:48:24;1.10;;;0.78;;
30998;SDS011;20549;50.042;8.968;2022-07-18T13:50:50;2.25;;;1.30;;
30998;SDS011;20549;50.042;8.968;2022-07-18T13:53:17;1.27;;;0.78;;
30998;SDS011;20549;50.042;8.968;2022-07-18T13:55:44;2.60;;;0.90;;
30998;SDS011;20549;50.042;8.968;2022-07-18T13:58:10;0.93;;;0.93;;
30998;SDS011;20549;50.042;8.968;2022-07-18T14:00:37;2.62;;;1.20;;
30998;SDS011;20549;50.042;8.968;2022-07-18T14:03:03;1.67;;;0.90;;
30998;SDS011;20549;50.042;8.968;2022-07-18T14:05:30;3.30;;;0.95;;
30998;SDS011;20549;50.042;8.968;2022-07-18T14:07:57;1.75;;;1.00;;
30998;SDS011;20549;50.042;8.968;2022-07-18T14:10:23;0.75;;;0.70;;
30998;SDS011;20549;50.042;8.968;2022-07-18T14:12:50;1.00;;;0.90;;
30998;SDS011;20549;50.042;8.968;2022-07-18T14:15:16;1.27;;;1.15;;
30998;SDS011;20549;50.042;8.968;2022-07-18T14:20:04;0.98;;;0.95;;
30998;SDS011;20549;50.042;8.968;2022-07-18T14:22:31;0.65;;;0.65;;
30998;SDS011;20549;50.042;8.968;2022-07-18T14:24:57;0.82;;;0.80;;
30998;SDS011;20549;50.042;8.968;2022-07-18T14:27:24;3.65;;;0.90;;
30998;SDS011;20549;50.042;8.968;2022-07-18T14:29:51;1.32;;;0.98;;
30998;SDS011;20549;50.042;8.968;2022-07-18T14:32:17;1.25;;;1.00;;
30998;SDS011;20549;50.042;8.968;2022-07-18T14:34:44;1.52;;;1.22;;
30998;SDS011;20549;50.042;8.968;2022-07-18T14:37:10;1.00;;;1.00;;
30998;SDS011;20549;50.042;8.968;2022-07-18T14:39:37;4.30;;;1.10;;
30998;SDS011;20549;50.042;8.968;2022-07-18T14:42:03;2.65;;;1.07;;
30998;SDS011;20549;50.042;8.968;2022-07-18T14:44:30;0.90;;;0.90;;
30998;SDS011;20549;50.042;8.968;2022-07-18T14:46:57;2.58;;;1.35;;
30998;SDS011;20549;50.042;8.968;2022-07-18T14:49:23;2.52;;;1.20;;
30998;SDS011;20549;50.042;8.968;2022-07-18T14:51:50;2.45;;;1.20;;
30998;SDS011;20549;50.042;8.968;2022-07-18T14:54:16;2.60;;;1.00;;
30998;SDS011;20549;50.042;8.968;2022-07-18T14:56:43;1.12;;;0.98;;
30998;SDS011;20549;50.042;8.968;2022-07-18T14:59:10;1.17;;;0.95;;
30998;SDS011;20549;50.042;8.968;2022-07-18T15:01:36;1.25;;;1.15;;
30998;SDS011;20549;50.042;8.968;2022-07-18T15:04:03;0.95;;;0.95;;
30998;SDS011;20549;50.042;8.968;2022-07-18T15:06:29;2.05;;;0.98;;
30998;SDS011;20549;50.042;8.968;2022-07-18T15:08:56;1.30;;;1.20;;
30998;SDS011;20549;50.042;8.968;2022-07-18T15:11:22;1.57;;;1.10;;
30998;SDS011;20549;50.042;8.968;2022-07-18T15:13:49;2.33;;;1.10;;
30998;SDS011;20549;50.042;8.968;2022-07-18T15:16:16;1.75;;;1.17;;
30998;SDS011;20549;50.042;8.968;2022-07-18T15:18:42;1.10;;;0.98;;
30998;SDS011;20549;50.042;8.968;2022-07-18T15:21:09;2.02;;;1.02;;
30998;SDS011;20549;50.042;8.968;2022-07-18T15:23:35;1.98;;;1.02;;
30998;SDS011;20549;50.042;8.968;2022-07-18T15:26:02;1.40;;;0.93;;
30998;SDS011;20549;50.042;8.968;2022-07-18T15:28:29;2.05;;;1.07;;
30998;SDS011;20549;50.042;8.968;2022-07-18T15:30:55;5.37;;;1.05;;
30998;SDS011;20549;50.042;8.968;2022-07-18T15:33:22;1.20;;;1.10;;
30998;SDS011;20549;50.042;8.968;2022-07-18T15:35:48;1.40;;;0.90;;
30998;SDS011;20549;50.042;8.968;2022-07-18T15:38:15;1.15;;;1.07;;
30998;SDS011;20549;50.042;8.968;2022-07-18T15:40:42;3.47;;;1.20;;